Time;durP1;ratioP1;P1;durP2;ratioP2;P2;SDS_P1;SDS_P2;PMS_P1;PMS_P2;Temp;Humidity;BMP_temperature;BMP_pressure;BME280_temperature;BME280_humidity;BME280_pressure;Samples;Min_cycle;Max_cycle;Signal;HPM_P1;HPM_P2
2022/06/19 00:00:10;;;;;;;;;;;23.10;52.20;;;22.31;49.85;95831.84;5015748;28;19921;-66
2022/06/19 00:02:36;;;;;;;;;;;23.00;52.00;;;22.26;49.98;95815.78;5019235;28;19925;-65
2022/06/19 00:05:01;;;;;;;;;;;23.00;51.80;;;22.27;50.35;95819.25;5027946;28;19944;-65
2022/06/19 00:07:27;;;;;;;;;;;23.00;52.40;;;22.24;50.87;95804.53;5030588;28;19917;-65
2022/06/19 00:09:53;;;;;;;;;;;23.00;52.50;;;22.22;50.89;95811.22;5014523;28;19937;-66
2022/06/19 00:12:18;;;;;;;;;;;23.00;52.40;;;22.16;50.63;95797.00;5031057;28;19923;-66
2022/06/19 00:14:44;;;;;;;;;;;22.90;52.40;;;22.15;50.37;95789.25;5023283;28;19921;-66
2022/06/19 00:17:10;;;;;;;;;;;22.80;52.20;;;22.11;51.16;95782.81;5030997;28;20011;-66
2022/06/19 00:19:36;;;;;;;;;;;22.80;52.30;;;22.05;50.24;95773.19;5030290;28;20407;-66
2022/06/19 00:22:02;;;;;;;;;;;22.70;51.90;;;22.01;50.44;95764.88;5016197;28;19962;-66
2022/06/19 00:24:29;;;;;;;;;;;22.70;52.30;;;21.97;50.71;95761.13;5013097;28;20307;-65
2022/06/19 00:26:55;;;;;;;;;;;22.70;52.30;;;21.96;50.61;95760.31;5031344;28;19925;-66
2022/06/19 00:29:21;;;;;;;;;;;22.60;52.20;;;21.95;50.92;95753.38;5036048;28;19966;-66
2022/06/19 00:31:46;;;;;;;;;;;22.70;52.20;;;21.93;50.67;95747.44;5015473;28;19923;-66
2022/06/19 00:34:12;;;;;;;;;;;22.70;52.30;;;21.94;50.23;95741.00;5023251;28;20446;-66
2022/06/19 00:36:38;;;;;;;;;;;22.70;52.20;;;21.91;50.50;95741.56;4989294;28;19921;-66
2022/06/19 00:39:03;;;;;;;;;;;22.70;51.80;;;21.88;50.44;95734.06;5010072;28;19923;-66
2022/06/19 00:41:39;;;;;;;;;;;22.70;51.80;;;21.88;50.69;95734.06;4995438;28;19949;-65
2022/06/19 00:44:07;;;;;;;;;;;22.60;52.00;;;21.89;50.72;95732.19;5017453;28;20012;-66
2022/06/19 00:47:00;;;;;;;;;;;22.60;52.20;;;21.88;50.67;95726.03;5031302;28;20118;-66
2022/06/19 00:49:28;;;;;;;;;;;22.70;52.20;;;21.85;50.48;95726.56;5000414;28;20384;-66
2022/06/19 00:52:03;;;;;;;;;;;22.60;52.10;;;21.79;50.82;95705.44;5013277;28;19929;-66
2022/06/19 00:54:28;;;;;;;;;;;22.60;52.20;;;21.82;50.79;95711.03;4998206;28;19916;-66
2022/06/19 00:56:54;;;;;;;;;;;22.60;52.00;;;21.78;51.15;95698.47;5014846;28;22413;-66
2022/06/19 00:59:20;;;;;;;;;;;22.60;52.30;;;21.77;50.24;95689.63;5001648;28;19921;-65
2022/06/19 01:01:45;;;;;;;;;;;22.60;52.10;;;21.78;50.47;95699.28;5016359;28;19917;-66
2022/06/19 01:04:19;;;;;;;;;;;22.60;52.00;;;21.75;50.95;95699.81;5021275;28;20052;-66
2022/06/19 01:06:45;;;;;;;;;;;22.60;52.00;;;21.75;50.60;95699.81;5010214;28;20335;-66
2022/06/19 01:09:10;;;;;;;;;;;22.60;52.10;;;21.71;50.86;95688.81;5000065;28;19921;-66
2022/06/19 01:11:38;;;;;;;;;;;22.60;52.10;;;21.71;51.16;95688.03;5014057;28;19924;-66
2022/06/19 01:14:03;;;;;;;;;;;22.50;52.10;;;21.68;50.67;95683.22;5003655;28;19918;-66
2022/06/19 01:16:29;;;;;;;;;;;22.50;52.30;;;21.66;51.15;95688.03;5019030;28;19988;-66
2022/06/19 01:18:55;;;;;;;;;;;22.40;52.60;;;21.60;51.43;95671.19;5008929;28;19929;-65
2022/06/19 01:21:28;;;;;;;;;;;22.40;52.90;;;21.58;51.57;95667.16;5019086;28;19918;-66
2022/06/19 01:24:06;;;;;;;;;;;22.40;53.10;;;21.52;51.86;95658.34;5005228;28;19925;-66
2022/06/19 01:26:35;;;;;;;;;;;22.30;53.50;;;21.44;52.68;95661.53;5002957;28;20300;-66
2022/06/19 01:29:00;;;;;;;;;;;22.20;53.70;;;21.43;52.10;95659.13;5006644;28;19948;-66
2022/06/19 01:31:32;;;;;;;;;;;22.20;54.00;;;21.34;52.37;95657.00;4988766;28;20607;-65
2022/06/19 01:34:26;;;;;;;;;;;22.10;54.10;;;21.29;52.70;95656.22;4991176;28;20375;-66
2022/06/19 01:36:49;;;;;;;;;;;22.00;54.60;;;21.22;52.50;95659.09;5023421;28;19971;-66
2022/06/19 01:39:15;;;;;;;;;;;22.00;54.80;;;21.18;52.66;95662.56;5009688;28;19925;-66
2022/06/19 01:41:40;;;;;;;;;;;22.00;54.70;;;21.14;52.24;95681.03;4999052;28;19925;-66
2022/06/19 01:44:06;;;;;;;;;;;21.80;54.50;;;21.07;52.27;95669.78;5019202;28;20730;-65
2022/06/19 01:46:32;;;;;;;;;;;21.70;55.20;;;20.99;53.63;95643.56;5028607;28;19925;-66
2022/06/19 01:48:57;;;;;;;;;;;21.60;55.70;;;20.93;53.77;95653.44;5034653;28;20619;-65
2022/06/19 01:51:23;;;;;;;;;;;21.60;56.10;;;20.86;54.91;95636.06;5028985;28;20403;-65
2022/06/19 01:53:57;;;;;;;;;;;21.60;56.80;;;20.75;54.37;95635.22;5020110;28;19923;-65
2022/06/19 01:56:23;;;;;;;;;;;21.40;57.50;;;20.64;55.61;95634.41;5016577;28;19917;-65
2022/06/19 01:58:50;;;;;;;;;;;21.30;58.00;;;20.54;55.73;95621.00;5015707;28;19924;-66
2022/06/19 02:01:15;;;;;;;;;;;21.20;58.10;;;20.49;55.59;95623.69;4966775;28;20320;-65
2022/06/19 02:03:48;;;;;;;;;;;21.20;58.60;;;20.45;56.06;95630.63;5023737;28;19936;-65
2022/06/19 02:06:15;;;;;;;;;;;21.10;58.90;;;20.38;55.46;95628.16;5034388;28;19921;-66
2022/06/19 02:08:41;;;;;;;;;;;21.10;58.60;;;20.32;56.97;95625.72;5034150;28;20007;-65
2022/06/19 02:11:07;;;;;;;;;;;21.10;59.00;;;20.30;56.17;95619.84;5009329;28;20302;-66
2022/06/19 02:13:34;;;;;;;;;;;21.00;58.60;;;20.26;55.63;95621.44;5047347;28;19917;-65
2022/06/19 02:15:59;;;;;;;;;;;21.00;58.30;;;20.21;56.53;95613.41;5022981;28;19990;-65
2022/06/19 02:18:32;;;;;;;;;;;21.00;58.30;;;20.17;56.54;95616.59;5026113;28;19917;-65
2022/06/19 02:20:57;;;;;;;;;;;21.00;58.60;;;20.15;57.33;95599.22;5003669;28;19929;-65
2022/06/19 02:23:30;;;;;;;;;;;21.00;58.60;;;20.13;55.66;95604.00;5008854;28;19928;-65
2022/06/19 02:25:56;;;;;;;;;;;20.90;58.30;;;20.08;56.55;95585.28;5011379;28;20341;-65
2022/06/19 02:28:22;;;;;;;;;;;20.80;58.70;;;20.05;56.24;95581.28;5019124;28;19928;-65
2022/06/19 02:30:48;;;;;;;;;;;20.80;58.50;;;20.03;56.91;95577.28;4999994;28;19917;-65
2022/06/19 02:33:15;;;;;;;;;;;20.80;58.50;;;20.02;55.13;95586.34;5046516;28;20332;-65
2022/06/19 02:35:40;;;;;;;;;;;20.80;58.40;;;19.94;56.79;95579.66;4999379;28;19972;-65
2022/06/19 02:38:06;;;;;;;;;;;20.70;58.90;;;19.94;56.22;95579.66;5018855;28;19921;-65
2022/06/19 02:41:02;;;;;;;;;;;20.60;59.00;;;19.94;56.61;95573.50;5014686;28;20373;-65
2022/06/19 02:43:30;;;;;;;;;;;20.70;59.30;;;19.91;57.20;95563.31;5022836;28;19983;-65
2022/06/19 02:45:55;;;;;;;;;;;20.70;59.30;;;19.87;57.28;95557.72;5018577;28;19924;-65
2022/06/19 02:48:29;;;;;;;;;;;20.70;59.00;;;19.85;56.23;95568.66;5007768;28;20454;-65
2022/06/19 02:50:56;;;;;;;;;;;20.70;59.30;;;19.84;57.86;95563.56;5010054;28;19929;-64
2022/06/19 02:53:22;;;;;;;;;;;20.70;59.50;;;19.84;57.77;95552.91;5026200;28;19917;-65
2022/06/19 02:55:47;;;;;;;;;;;20.60;59.40;;;19.82;57.78;95566.50;5018463;28;19921;-64
2022/06/19 02:58:13;;;;;;;;;;;20.60;59.40;;;19.80;57.98;95549.16;5027375;28;20524;-65
2022/06/19 03:00:39;;;;;;;;;;;20.60;59.50;;;19.78;57.04;95557.41;5018277;28;19917;-65
2022/06/19 03:03:18;;;;;;;;;;;20.60;59.80;;;19.76;57.56;95551.53;5006388;28;19977;-65
2022/06/19 03:05:44;;;;;;;;;;;20.60;59.90;;;19.74;56.98;95558.19;5018676;28;19921;-65
2022/06/19 03:08:10;;;;;;;;;;;20.60;59.70;;;19.71;57.27;95553.38;5003188;28;19923;-65
2022/06/19 03:10:36;;;;;;;;;;;20.50;59.70;;;19.67;57.48;95558.41;5016381;28;19917;-65
2022/06/19 03:13:01;;;;;;;;;;;20.50;59.90;;;19.65;57.45;95565.06;5024175;28;20288;-65
2022/06/19 03:15:27;;;;;;;;;;;20.40;60.10;;;19.64;58.28;95574.16;5020616;28;19963;-65
2022/06/19 03:17:53;;;;;;;;;;;20.50;60.30;;;19.65;57.66;95578.41;4985446;28;20461;-65
2022/06/19 03:20:20;;;;;;;;;;;20.50;60.60;;;19.61;58.56;95569.31;5011854;28;19917;-64
2022/06/19 03:22:45;;;;;;;;;;;20.50;60.50;;;19.63;59.72;95577.88;4980372;28;19916;-65
2022/06/19 03:25:11;;;;;;;;;;;20.50;60.70;;;19.61;58.59;95575.47;5032179;28;19921;-65
2022/06/19 03:27:36;;;;;;;;;;;20.50;60.20;;;19.60;58.70;95583.72;5012609;28;19921;-65
2022/06/19 03:30:03;;;;;;;;;;;20.60;60.30;;;19.60;58.82;95579.19;5015116;28;19921;-65
2022/06/19 03:32:28;;;;;;;;;;;20.50;60.50;;;19.61;59.39;95580.00;5029146;28;19952;-64
2022/06/19 03:34:54;;;;;;;;;;;20.50;60.50;;;19.61;58.84;95580.00;5008903;28;19931;-65
2022/06/19 03:37:20;;;;;;;;;;;20.50;60.60;;;19.56;58.68;95584.25;5012163;28;20340;-65
2022/06/19 03:39:45;;;;;;;;;;;20.50;60.80;;;19.60;59.05;95578.38;5006643;28;19918;-65
2022/06/19 03:42:11;;;;;;;;;;;20.50;61.40;;;19.61;59.10;95585.34;5029239;28;19952;-65
2022/06/19 03:44:37;;;;;;;;;;;20.60;61.20;;;19.57;59.58;95585.06;4989432;28;19924;-65
2022/06/19 03:47:04;;;;;;;;;;;20.50;61.00;;;19.58;59.78;95584.00;5014250;28;19917;-65
2022/06/19 03:49:30;;;;;;;;;;;20.50;61.60;;;19.58;60.29;95592.78;5013098;28;19921;-65
2022/06/19 03:51:56;;;;;;;;;;;20.50;61.90;;;19.60;60.28;95583.72;5007356;28;19925;-65
2022/06/19 03:54:21;;;;;;;;;;;20.50;62.10;;;19.60;60.58;95589.88;5011677;28;20299;-65
2022/06/19 03:56:47;;;;;;;;;;;20.60;62.40;;;19.60;61.10;95589.88;5015365;28;19983;-65
2022/06/19 03:59:13;;;;;;;;;;;20.50;62.70;;;19.60;61.58;95584.53;5030210;28;19959;-65
2022/06/19 04:01:40;;;;;;;;;;;20.50;62.90;;;19.57;61.54;95580.50;5030072;28;19917;-65
2022/06/19 04:04:06;;;;;;;;;;;20.50;63.10;;;19.57;61.37;95580.50;5030465;28;19971;-65
2022/06/19 04:06:34;;;;;;;;;;;20.50;63.10;;;19.53;60.96;95575.94;5033411;28;19925;-65
2022/06/19 04:09:00;;;;;;;;;;;20.40;62.80;;;19.52;60.04;95582.31;5030876;28;19936;-65
2022/06/19 04:11:26;;;;;;;;;;;20.50;62.20;;;19.54;61.82;95573.03;5025836;28;19917;-65
2022/06/19 04:13:55;;;;;;;;;;;20.50;62.80;;;19.53;60.39;95571.44;5020342;28;19932;-65
2022/06/19 04:16:22;;;;;;;;;;;20.60;62.60;;;19.55;60.39;95571.16;4999340;28;19975;-65
2022/06/19 04:18:48;;;;;;;;;;;20.60;62.40;;;19.53;61.59;95582.09;5009265;28;19917;-65
2022/06/19 04:21:16;;;;;;;;;;;20.50;62.50;;;19.56;60.77;95578.09;4998523;28;20003;-65
2022/06/19 04:23:42;;;;;;;;;;;20.60;62.50;;;19.58;61.18;95578.66;5028511;28;19921;-65
2022/06/19 04:26:09;;;;;;;;;;;20.60;62.20;;;19.61;61.37;95577.31;5025795;28;20014;-65
2022/06/19 04:28:35;;;;;;;;;;;20.60;62.30;;;19.63;61.01;95577.88;5031189;28;20328;-65
2022/06/19 04:31:01;;;;;;;;;;;20.70;62.90;;;19.62;62.22;95577.06;5020119;28;19965;-65
2022/06/19 04:33:26;;;;;;;;;;;20.60;63.90;;;19.62;62.42;95571.72;5013455;28;19913;-65
2022/06/19 04:35:52;;;;;;;;;;;20.70;63.70;;;19.64;62.33;95579.47;5027097;28;19917;-65
2022/06/19 04:38:18;;;;;;;;;;;20.70;63.10;;;19.64;62.04;95580.28;5011955;28;19924;-65
2022/06/19 04:40:44;;;;;;;;;;;20.70;63.60;;;19.67;61.31;95584.28;5027023;28;20295;-65
2022/06/19 04:43:10;;;;;;;;;;;20.70;62.70;;;19.69;62.34;95590.16;5004832;28;19929;-65
2022/06/19 04:45:36;;;;;;;;;;;20.80;62.80;;;19.70;62.70;95591.81;4981274;28;19953;-66
2022/06/19 04:48:02;;;;;;;;;;;20.80;63.60;;;19.72;62.91;95593.16;4996753;28;19917;-65
2022/06/19 04:50:28;;;;;;;;;;;20.80;63.30;;;19.74;62.19;95592.91;5000561;28;20269;-67
2022/06/19 04:52:54;;;;;;;;;;;20.90;63.90;;;19.77;63.31;95600.38;4960887;28;19928;-66
2022/06/19 04:55:19;;;;;;;;;;;20.90;63.80;;;19.82;62.82;95600.41;5021937;28;19917;-65
2022/06/19 04:57:46;;;;;;;;;;;21.00;63.70;;;19.86;63.59;95593.47;5024999;28;19917;-66
2022/06/19 05:00:14;;;;;;;;;;;21.00;63.40;;;19.89;62.38;95588.41;5016027;28;19921;-66
2022/06/19 05:02:39;;;;;;;;;;;21.10;63.60;;;19.93;62.72;95578.06;4982582;28;20308;-66
2022/06/19 05:05:06;;;;;;;;;;;21.10;64.00;;;19.97;61.25;95572.97;4998379;28;19921;-66
2022/06/19 05:07:32;;;;;;;;;;;21.10;61.80;;;19.99;61.42;95579.66;5027996;28;19921;-65
2022/06/19 05:09:58;;;;;;;;;;;21.10;62.40;;;20.04;62.83;95568.19;5019370;28;19943;-66
2022/06/19 05:12:24;;;;;;;;;;;21.20;63.40;;;20.09;63.16;95570.88;5004310;28;20434;-66
2022/06/19 05:14:49;;;;;;;;;;;21.30;62.80;;;20.14;62.19;95578.91;5011581;28;20311;-66
2022/06/19 05:17:15;;;;;;;;;;;21.40;62.20;;;20.22;62.69;95575.75;4999820;28;20249;-66
2022/06/19 05:19:41;;;;;;;;;;;21.50;61.90;;;20.29;62.11;95570.16;5012111;28;19925;-66
2022/06/19 05:22:06;;;;;;;;;;;21.60;62.20;;;20.37;62.39;95572.34;5023966;28;19917;-65
2022/06/19 05:24:32;;;;;;;;;;;21.70;62.40;;;20.44;61.70;95575.56;5049006;28;19947;-65
2022/06/19 05:26:58;;;;;;;;;;;21.70;61.90;;;20.50;61.59;95571.84;4998930;28;19922;-66
2022/06/19 05:29:24;;;;;;;;;;;21.90;61.70;;;20.58;62.31;95573.97;5027896;28;19917;-66
2022/06/19 05:31:50;;;;;;;;;;;21.90;61.60;;;20.68;61.13;95570.53;4999587;28;19917;-66
2022/06/19 05:34:15;;;;;;;;;;;22.10;60.90;;;20.80;62.13;95581.78;4983294;28;19917;-65
2022/06/19 05:36:41;;;;;;;;;;;22.20;61.00;;;20.90;60.57;95572.97;5000455;28;19927;-65
2022/06/19 05:39:08;;;;;;;;;;;22.30;60.30;;;20.98;60.85;95572.44;5018797;28;19917;-65
2022/06/19 05:41:34;;;;;;;;;;;22.50;59.40;;;21.07;59.51;95570.84;5025173;28;19920;-66
2022/06/19 05:43:59;;;;;;;;;;;22.50;58.60;;;21.16;59.29;95563.88;5023489;28;19925;-66
2022/06/19 05:46:25;;;;;;;;;;;22.60;58.20;;;21.27;59.81;95564.69;5033981;28;20264;-66
2022/06/19 05:48:51;;;;;;;;;;;22.80;57.90;;;21.38;59.50;95564.44;5039858;28;19917;-67
2022/06/19 05:51:21;;;;;;;;;;;23.00;58.20;;;21.53;60.00;95565.47;5029374;28;20342;-64
2022/06/19 05:53:49;;;;;;;;;;;23.20;58.70;;;21.65;59.66;95565.97;5000720;28;20441;-66
2022/06/19 05:56:15;;;;;;;;;;;23.30;58.00;;;21.78;59.61;95565.41;5013529;28;19917;-67
2022/06/19 05:58:41;;;;;;;;;;;23.50;58.10;;;21.91;58.86;95559.47;5018669;28;20049;-68
2022/06/19 06:01:07;;;;;;;;;;;23.50;56.80;;;22.01;59.02;95559.44;5023423;28;20276;-68
2022/06/19 06:03:33;;;;;;;;;;;23.60;57.30;;;22.11;57.94;95553.25;5017603;28;19924;-68
2022/06/19 06:06:00;;;;;;;;;;;23.80;56.10;;;22.31;57.95;95563.09;5011554;28;19932;-66
2022/06/19 06:08:26;;;;;;;;;;;24.10;55.10;;;22.47;57.22;95566.50;5028679;28;20281;-63
2022/06/19 06:10:51;;;;;;;;;;;24.20;54.40;;;22.64;56.72;95566.13;5032754;28;19971;-65
2022/06/19 06:13:17;;;;;;;;;;;24.40;53.80;;;22.82;55.03;95560.13;5034652;28;19913;-63
2022/06/19 06:15:45;;;;;;;;;;;24.60;51.90;;;23.02;55.07;95561.84;5015428;28;19971;-64
2022/06/19 06:18:11;;;;;;;;;;;24.80;52.00;;;23.25;55.30;95560.31;5015306;28;19920;-63
2022/06/19 06:20:36;;;;;;;;;;;25.10;51.70;;;23.45;54.66;95565.50;5032901;28;20292;-67
2022/06/19 06:23:02;;;;;;;;;;;25.30;52.00;;;23.61;55.46;95572.34;5030979;28;19913;-64
2022/06/19 06:25:28;;;;;;;;;;;25.60;52.10;;;23.79;53.35;95571.63;5006683;28;19917;-63
2022/06/19 06:27:53;;;;;;;;;;;25.70;50.30;;;23.95;52.25;95568.75;5031872;28;20473;-63
2022/06/19 06:30:19;;;;;;;;;;;25.80;47.90;;;24.07;51.36;95567.28;5030342;28;19979;-63
2022/06/19 06:32:45;;;;;;;;;;;26.10;47.70;;;24.20;51.66;95571.16;5022111;28;19917;-64
2022/06/19 06:35:10;;;;;;;;;;;26.30;47.70;;;24.33;51.88;95570.47;5023677;28;19913;-63
2022/06/19 06:37:36;;;;;;;;;;;26.40;47.30;;;24.45;52.34;95571.97;4998258;28;19970;-64
2022/06/19 06:40:05;;;;;;;;;;;26.50;47.70;;;24.58;52.08;95576.59;5032476;28;19917;-64
2022/06/19 06:42:31;;;;;;;;;;;26.70;47.60;;;24.69;52.28;95580.75;5032315;28;19917;-64
2022/06/19 06:44:56;;;;;;;;;;;26.90;47.50;;;24.83;53.16;95584.31;5023982;28;19921;-63
2022/06/19 06:47:22;;;;;;;;;;;27.10;48.10;;;24.97;53.31;95579.81;5023970;28;19920;-62
2022/06/19 06:49:48;;;;;;;;;;;27.40;48.20;;;25.13;51.85;95577.72;5013917;28;20338;-63
2022/06/19 06:52:13;;;;;;;;;;;27.50;46.80;;;25.29;51.33;95578.25;5014683;28;19919;-63
2022/06/19 06:54:39;;;;;;;;;;;27.60;46.70;;;25.47;51.09;95582.78;5028876;28;19913;-63
2022/06/19 06:57:06;;;;;;;;;;;27.90;46.10;;;25.62;52.17;95579.84;5013993;28;19925;-63
2022/06/19 06:59:31;;;;;;;;;;;28.10;46.70;;;25.78;50.76;95579.56;5001438;28;19944;-63
2022/06/19 07:01:57;;;;;;;;;;;28.30;45.10;;;25.93;51.93;95572.00;5011917;28;20325;-63
2022/06/19 07:04:23;;;;;;;;;;;28.50;46.20;;;26.11;51.73;95570.31;5024814;28;19920;-63
2022/06/19 07:06:48;;;;;;;;;;;28.70;45.70;;;26.25;49.40;95565.72;5031659;28;19917;-63
2022/06/19 07:09:14;;;;;;;;;;;28.90;43.30;;;26.37;48.69;95565.22;4997342;28;19913;-65
2022/06/19 07:11:40;;;;;;;;;;;29.00;42.60;;;26.51;48.48;95557.13;5014156;28;19913;-64
2022/06/19 07:14:06;;;;;;;;;;;29.10;42.50;;;26.63;48.63;95568.16;4982723;28;19995;-64
2022/06/19 07:16:32;;;;;;;;;;;29.10;42.50;;;26.74;48.58;95560.66;4994279;28;20021;-65
2022/06/19 07:18:58;;;;;;;;;;;29.40;42.10;;;26.86;48.06;95559.00;4994374;28;19913;-65
2022/06/19 07:21:23;;;;;;;;;;;29.40;42.00;;;26.99;48.88;95570.06;5011607;28;20266;-64
2022/06/19 07:23:49;;;;;;;;;;;29.60;43.10;;;27.07;49.10;95562.03;5010728;28;19913;-64
2022/06/19 07:26:16;;;;;;;;;;;29.60;43.10;;;27.22;50.50;95571.69;5012874;28;19923;-65
2022/06/19 07:28:42;;;;;;;;;;;30.00;44.60;;;27.39;49.55;95569.09;4980306;28;20083;-65
2022/06/19 07:31:07;;;;;;;;;;;30.30;43.00;;;27.57;49.00;95571.88;5032880;28;19920;-64
2022/06/19 07:33:37;;;;;;;;;;;30.50;42.60;;;27.73;50.14;95573.94;4995854;28;19966;-65
2022/06/19 07:36:04;;;;;;;;;;;30.70;43.20;;;27.89;48.25;95566.22;5020076;28;19921;-65
2022/06/19 07:38:29;;;;;;;;;;;30.90;42.00;;;28.08;47.97;95565.19;5029702;28;19959;-65
2022/06/19 07:40:55;;;;;;;;;;;31.00;41.30;;;28.21;47.72;95575.06;5009663;28;19921;-65
2022/06/19 07:43:21;;;;;;;;;;;31.10;40.90;;;28.34;47.32;95574.97;4997880;28;19953;-65
2022/06/19 07:45:46;;;;;;;;;;;31.10;41.40;;;28.47;48.05;95578.66;5004689;28;19917;-65
2022/06/19 07:50:57;;;;;;;;;;;31.60;41.10;;;28.78;48.33;95566.94;5010633;28;19978;-65
2022/06/19 07:53:22;;;;;;;;;;;31.80;41.50;;;28.93;47.61;95569.19;5026671;28;20404;-65
2022/06/19 07:55:48;;;;;;;;;;;32.10;40.80;;;29.06;46.22;95562.03;5015991;28;20368;-65
2022/06/19 07:58:14;;;;;;;;;;;32.10;39.20;;;29.20;47.81;95558.03;5028942;28;19939;-65
2022/06/19 08:00:40;;;;;;;;;;;32.20;40.90;;;29.35;47.79;95569.47;5028476;28;19921;-65
2022/06/19 08:03:05;;;;;;;;;;;32.40;40.90;;;29.48;45.59;95566.63;5019444;28;19917;-65
2022/06/19 08:05:34;;;;;;;;;;;32.50;39.20;;;29.65;46.14;95571.22;5025419;28;19994;-65
2022/06/19 08:08:01;;;;;;;;;;;32.70;39.40;;;29.84;47.27;95571.59;4989671;28;20019;-66
2022/06/19 08:10:38;;;;;;;;;;;33.00;40.40;;;29.99;45.50;95577.63;5022427;28;19925;-65
2022/06/19 08:13:04;;;;;;;;;;;33.00;38.50;;;30.13;45.70;95570.09;5011536;28;19921;-65
2022/06/19 08:15:30;;;;;;;;;;;33.20;39.00;;;30.30;45.22;95571.91;5009687;28;19931;-68
2022/06/19 08:17:55;;;;;;;;;;;33.40;38.60;;;30.43;45.76;95566.25;5002687;28;19999;-68
2022/06/19 08:20:21;;;;;;;;;;;33.60;39.00;;;30.61;44.98;95566.19;5036881;28;19921;-68
2022/06/19 08:22:47;;;;;;;;;;;33.80;37.80;;;30.71;43.61;95565.78;5007165;28;20001;-66
2022/06/19 08:25:13;;;;;;;;;;;33.60;36.70;;;30.81;43.34;95576.25;4992386;28;19917;-67
2022/06/19 08:27:41;;;;;;;;;;;33.70;36.40;;;30.92;43.11;95566.56;4994475;28;19924;-69
2022/06/19 08:30:11;;;;;;;;;;;33.90;36.20;;;31.07;42.89;95571.41;4992797;28;19960;-69
2022/06/19 08:32:37;;;;;;;;;;;34.10;36.10;;;31.20;44.06;95563.34;5003130;28;19917;-69
2022/06/19 08:35:02;;;;;;;;;;;34.30;37.10;;;31.41;43.63;95566.03;5002185;28;19913;-67
2022/06/19 08:37:28;;;;;;;;;;;34.80;35.50;;;31.60;41.70;95556.22;5017406;28;19924;-69
2022/06/19 08:39:54;;;;;;;;;;;35.00;34.50;;;31.81;41.96;95553.47;5028400;28;19924;-68
2022/06/19 08:42:44;;;;;;;;;;;35.30;34.90;;;32.08;41.55;95557.44;5031594;28;19917;-66
2022/06/19 08:45:16;;;;;;;;;;;35.50;34.20;;;32.30;41.50;95558.97;5028128;28;20225;-66
2022/06/19 08:47:57;;;;;;;;;;;35.70;33.90;;;32.49;40.27;95558.38;5030218;28;19936;-66
2022/06/19 08:50:34;;;;;;;;;;;35.50;33.20;;;32.69;40.79;95553.94;4992815;28;20330;-67
2022/06/19 08:53:19;;;;;;;;;;;35.70;33.10;;;32.96;40.77;95553.19;4997843;28;19928;-66
2022/06/19 08:55:54;;;;;;;;;;;36.00;34.50;;;33.24;40.93;95553.19;4991023;28;20345;-67
2022/06/19 08:58:31;;;;;;;;;;;36.30;34.00;;;33.55;39.80;95562.66;5007943;28;20415;-67
2022/06/19 09:01:18;;;;;;;;;;;36.50;33.80;;;33.79;39.28;95557.84;5018323;28;19982;-68
2022/06/19 09:06:57;;;;;;;;;;;36.70;32.00;;;34.28;39.38;95562.97;5025186;28;19927;-67
2022/06/19 09:09:41;;;;;;;;;;;37.00;33.50;;;34.51;38.34;95559.59;5013798;28;20111;-67
2022/06/19 09:12:32;;;;;;;;;;;37.20;30.90;;;34.73;38.99;95549.94;5034005;28;19923;-68
2022/06/19 09:15:22;;;;;;;;;;;37.40;32.40;;;34.95;37.44;95554.75;5011512;28;19971;-68
2022/06/19 09:18:03;;;;;;;;;;;37.60;30.20;;;35.10;37.65;95553.91;5035957;28;20339;-68
2022/06/19 09:20:31;;;;;;;;;;;37.70;31.40;;;35.28;37.85;95544.09;5000448;28;19979;-69
2022/06/19 09:23:08;;;;;;;;;;;37.90;31.90;;;35.45;36.96;95547.56;5019691;28;19921;-68
2022/06/19 09:26:07;;;;;;;;;;;38.00;30.10;;;35.66;37.26;95544.44;5031439;28;19922;-68
2022/06/19 09:28:34;;;;;;;;;;;38.40;31.80;;;35.86;36.65;95546.78;4999245;28;20328;-68
2022/06/19 09:31:26;;;;;;;;;;;38.50;30.40;;;36.05;36.01;95545.16;4996597;28;19925;-68
2022/06/19 09:34:45;;;;;;;;;;;38.80;29.90;;;36.27;35.31;95540.78;5039719;28;20066;-67
2022/06/19 09:37:21;;;;;;;;;;;39.00;29.10;;;36.45;35.40;95534.47;4982421;28;20400;-66
2022/06/19 09:39:55;;;;;;;;;;;39.30;29.60;;;36.55;34.94;95543.19;5024880;28;19917;-66
2022/06/19 09:42:31;;;;;;;;;;;39.10;28.70;;;36.68;35.32;95539.09;5016558;28;20003;-66
2022/06/19 09:44:57;;;;;;;;;;;39.40;27.90;;;36.83;35.24;95532.66;5034813;28;19925;-66
2022/06/19 09:47:52;;;;;;;;;;;39.60;28.70;;;37.03;34.59;95531.34;5035949;28;20013;-66
2022/06/19 09:50:21;;;;;;;;;;;39.90;28.90;;;37.14;34.41;95526.00;5008829;28;19917;-66
2022/06/19 09:52:51;;;;;;;;;;;40.00;27.80;;;37.28;34.33;95522.63;5015964;28;19917;-66
2022/06/19 09:55:26;;;;;;;;;;;40.30;28.30;;;37.41;34.26;95518.47;5021995;28;20384;-67
2022/06/19 09:57:54;;;;;;;;;;;40.50;27.20;;;37.56;33.76;95522.94;5011827;28;19932;-67
2022/06/19 10:00:26;;;;;;;;;;;40.80;27.00;;;37.73;34.73;95518.03;5022670;28;19917;-67
2022/06/19 10:02:56;;;;;;;;;;;41.00;27.70;;;37.96;34.48;95518.63;5028855;28;19925;-66
2022/06/19 10:05:28;;;;;;;;;;;41.50;27.50;;;38.20;33.42;95518.06;4980851;28;19921;-68
2022/06/19 10:07:56;;;;;;;;;;;41.70;26.20;;;38.48;33.10;95513.94;5022217;28;19952;-68
2022/06/19 10:10:43;;;;;;;;;;;42.00;26.40;;;38.92;32.90;95517.34;5018814;28;19927;-67
2022/06/19 10:13:20;;;;;;;;;;;42.50;25.40;;;39.20;31.45;95515.91;5043096;28;20001;-66
2022/06/19 10:15:45;;;;;;;;;;;42.50;24.60;;;39.42;31.85;95511.28;5020316;28;19917;-70
2022/06/19 10:18:24;;;;;;;;;;;42.50;24.70;;;39.68;31.19;95505.44;5010257;28;19921;-72
2022/06/19 10:20:55;;;;;;;;;;;42.70;24.40;;;39.95;30.92;95505.88;5018562;28;20446;-72
2022/06/19 10:23:23;;;;;;;;;;;43.10;24.00;;;40.27;31.90;95494.81;5001720;28;20324;-72
2022/06/19 10:26:04;;;;;;;;;;;43.70;25.10;;;40.63;30.20;95503.06;5021546;28;20007;-72
2022/06/19 10:28:45;;;;;;;;;;;44.00;23.80;;;40.97;29.46;95493.16;4998503;28;19937;-70
2022/06/19 10:31:32;;;;;;;;;;;44.20;22.10;;;41.37;29.69;95493.75;5021123;28;20004;-72
2022/06/19 10:33:58;;;;;;;;;;;44.80;22.60;;;41.71;29.29;95484.88;5015191;28;19921;-71
2022/06/19 10:36:31;;;;;;;;;;;45.30;23.20;;;42.11;29.81;95491.72;5033224;28;19920;-69
2022/06/19 10:39:27;;;;;;;;;;;45.60;23.00;;;42.48;27.86;95497.28;5026979;28;19917;-69
2022/06/19 10:42:14;;;;;;;;;;;45.60;20.80;;;42.81;27.94;95500.50;5036316;28;19927;-70
2022/06/19 10:45:05;;;;;;;;;;;45.80;21.40;;;43.05;27.31;95502.22;5029684;28;19921;-67
2022/06/19 10:47:57;;;;;;;;;;;46.00;20.90;;;43.37;27.73;95492.72;5032498;28;19929;-67
2022/06/19 10:50:47;;;;;;;;;;;46.30;20.90;;;43.66;26.53;95488.31;5028598;28;19917;-68
2022/06/19 10:53:57;;;;;;;;;;;46.50;20.70;;;43.85;26.18;95489.66;5038505;28;19925;-69
2022/06/19 10:56:33;;;;;;;;;;;46.50;20.00;;;44.02;26.63;95482.25;4974972;28;19925;-68
2022/06/19 10:58:59;;;;;;;;;;;46.50;20.60;;;44.19;26.14;95475.66;5014468;28;19917;-67
2022/06/19 11:04:24;;;;;;;;;;;46.40;19.50;;;44.62;25.62;95474.13;5031086;28;20055;-68
2022/06/19 11:06:54;;;;;;;;;;;46.50;20.50;;;44.66;24.74;95467.28;5038642;28;19984;-69
2022/06/19 11:09:30;;;;;;;;;;;46.10;21.00;;;44.80;25.05;95469.78;5036043;28;19921;-68
2022/06/19 11:11:58;;;;;;;;;;;46.30;20.50;;;44.86;25.33;95468.09;5039935;28;20359;-68
2022/06/19 11:14:31;;;;;;;;;;;46.40;21.20;;;44.99;24.95;95470.22;5033870;28;20468;-69
2022/06/19 11:16:58;;;;;;;;;;;46.50;20.70;;;45.12;25.62;95471.16;5015570;28;19917;-68
2022/06/19 11:19:32;;;;;;;;;;;46.70;20.90;;;45.23;25.28;95473.69;5005457;28;19917;-68
2022/06/19 11:21:58;;;;;;;;;;;46.80;20.40;;;45.27;25.72;95469.66;5038346;28;19921;-68
2022/06/19 11:24:28;;;;;;;;;;;47.00;21.50;;;45.48;24.92;95463.59;5016098;28;20250;-67
2022/06/19 11:26:54;;;;;;;;;;;47.30;20.50;;;45.63;25.28;95471.66;5037628;28;20355;-67
2022/06/19 11:29:20;;;;;;;;;;;47.40;21.00;;;45.77;24.58;95457.41;5018950;28;19916;-67
2022/06/19 11:32:13;;;;;;;;;;;47.50;20.10;;;45.86;23.74;95460.38;5048681;28;19967;-68
2022/06/19 11:34:43;;;;;;;;;;;47.50;19.90;;;45.92;24.06;95461.41;5030348;28;19916;-67